Aeroporto :
LOGIN :

Iscrizione | Disclaimer

   EN    FR    IT 

 










Sommario :    VFR   VFR Marginale   IFR   IFR Intensivo   IFR Molto Intensivo
Visibilità : 
Base nubi : 
>= 8 km
>= 3000ft
5 / 8 km
1000 / 3000 ft
1500m / 5 km
500 / 1000 ft
800 / 1500m
200 / 500 ft
< 800m
< 200 ft
Simboli :   Temporali  Nebbia  Neve Forte  Precipitazioni Forti  Vento > 20 kt
SIGMETs :   Varie  Temporali  Ghiacco  Turbolenza  Onda orograficha  Ceneri Vulcaniche






- Altitudine del aeroporto : 52 ft
- Codice IATA : RNN


EKRN - Bornholm Ronne

ULTIMO METAR :
  • 180750Z AUTO 25021KT 9999 // OVC024/// 06/03 Q1016

METARs OBSOLETI :
  • 180720Z AUTO 25020KT 9999 // OVC028/// 06/04 Q1015
  • 180650Z AUTO 25018KT 9999 // OVC031/// 07/04 Q1015
  • 180620Z AUTO 25017KT 9999 // OVC036/// 06/04 Q1014
  • 180550Z AUTO 25020KT 9999 // BKN021/// BKN042/// 07/04 Q1014
  • 180520Z AUTO 25021KT 9999 // FEW022/// BKN041/// BKN076/// BKN130/// 07/05 Q1014

TAF TAF EKRN
Valido dal 18 a 06 ore il 18 a 15 ore UTC


180526Z 1806/1815 25018KT 9999 BKN025
TEMPO 1806/1815 25020G30KT



MetMap, La meteo Aeronautica in un colpo d'occhio ! - Copyright ORBIFLY Dicembre 2007 - Disclaimer

ORBIFLY MET'MAP TEAM :

Programmazione e sviluppo : Alexandra Zaïnal
Concezione : Baudouin d'Aumeries
Aiuto per la programmazione : Marc-Olivier Méhu
Supporto tecnico e logistico : Manuel Goepfert
Aiuto per la traduzione : Arnaldo La Scala

Contatto : metmap@orbifly.com




FONTI E CREDITI :

   NOAA